createdAt,value
2017-11-28T00:00:08.244Z,21.70
2017-11-28T00:02:36.308Z,21.70
2017-11-28T00:05:04.608Z,21.70
2017-11-28T00:07:32.797Z,21.70
2017-11-28T00:10:00.837Z,21.70
2017-11-28T00:12:29.149Z,21.70
2017-11-28T00:14:57.265Z,21.70
2017-11-28T00:17:26.145Z,21.60
2017-11-28T00:19:55.249Z,21.50
2017-11-28T00:22:24.019Z,21.50
2017-11-28T00:24:52.213Z,21.50
2017-11-28T00:27:21.205Z,21.40
2017-11-28T00:29:50.148Z,21.50
2017-11-28T00:32:18.349Z,21.40
2017-11-28T00:34:46.529Z,21.50
2017-11-28T00:37:14.782Z,21.50
2017-11-28T00:39:42.950Z,21.50
2017-11-28T00:42:11.378Z,21.30
2017-11-28T00:44:40.360Z,21.40
2017-11-28T00:47:09.233Z,21.40
2017-11-28T00:49:37.581Z,21.40
2017-11-28T00:52:05.884Z,21.30
2017-11-28T00:54:34.090Z,21.30
2017-11-28T00:57:02.277Z,21.30
2017-11-28T00:59:31.176Z,21.50
2017-11-28T01:02:00.081Z,21.50
2017-11-28T01:04:28.291Z,21.40
2017-11-28T01:06:56.373Z,21.50
2017-11-28T01:09:24.514Z,21.50
2017-11-28T01:11:52.722Z,21.40
2017-11-28T01:14:20.949Z,21.40
2017-11-28T01:16:49.125Z,21.30
2017-11-28T01:19:17.416Z,21.40
2017-11-28T01:21:45.658Z,21.40
2017-11-28T01:24:14.625Z,21.40
2017-11-28T01:26:42.920Z,21.40
2017-11-28T01:29:11.007Z,21.40
2017-11-28T01:31:40.194Z,21.30
2017-11-28T01:34:08.595Z,21.30
2017-11-28T01:36:37.608Z,21.30
2017-11-28T01:39:05.840Z,21.30
2017-11-28T01:41:34.264Z,21.40
2017-11-28T01:44:02.611Z,21.40
2017-11-28T01:46:30.887Z,21.40
2017-11-28T01:48:59.288Z,21.30
2017-11-28T01:51:28.337Z,21.40
2017-11-28T01:53:56.632Z,21.40
2017-11-28T01:56:25.088Z,21.30
2017-11-28T01:58:53.357Z,21.30
2017-11-28T02:01:21.588Z,21.20
2017-11-28T02:03:50.753Z,21.30
2017-11-28T02:06:18.917Z,21.20
2017-11-28T02:08:47.189Z,21.20
2017-11-28T02:11:15.557Z,21.20
2017-11-28T02:13:43.625Z,21.20
2017-11-28T02:16:12.049Z,21.20
2017-11-28T02:18:40.592Z,21.30
2017-11-28T02:21:09.053Z,21.40
2017-11-28T02:23:38.153Z,21.30
2017-11-28T02:26:07.368Z,21.30
2017-11-28T02:28:35.697Z,21.30
2017-11-28T02:31:04.070Z,21.30
2017-11-28T02:33:32.557Z,21.20
2017-11-28T02:36:00.861Z,21.20
2017-11-28T02:38:29.916Z,21.20
2017-11-28T02:41:10.521Z,21.20
2017-11-28T02:43:39.577Z,21.30
2017-11-28T02:46:09.687Z,21.30
2017-11-28T02:48:38.118Z,21.30
2017-11-28T02:51:13.602Z,21.30
2017-11-28T02:53:41.953Z,21.30
2017-11-28T02:56:11.022Z,21.30
2017-11-28T02:58:41.301Z,21.30
2017-11-28T03:01:17.555Z,21.20
2017-11-28T03:03:45.970Z,21.30
2017-11-28T03:06:15.085Z,21.30
2017-11-28T03:08:46.540Z,21.40
2017-11-28T03:11:14.842Z,21.50
2017-11-28T03:13:46.690Z,21.50
2017-11-28T03:16:21.349Z,21.50
2017-11-28T03:19:18.873Z,21.50
2017-11-28T03:21:50.930Z,21.60
2017-11-28T03:24:36.353Z,21.70
2017-11-28T03:27:04.664Z,21.70
2017-11-28T03:29:35.821Z,21.70
2017-11-28T03:32:04.133Z,21.90
2017-11-28T03:34:33.432Z,22.70
2017-11-28T03:37:02.492Z,23.50
2017-11-28T03:39:30.962Z,23.40
2017-11-28T03:41:59.261Z,24.10
2017-11-28T03:44:32.392Z,24.70
2017-11-28T03:47:01.620Z,25.50
2017-11-28T03:49:29.960Z,25.50
2017-11-28T03:51:58.993Z,25.50
2017-11-28T03:54:27.293Z,25.40
2017-11-28T03:56:55.621Z,25.10
2017-11-28T03:59:24.705Z,24.10
2017-11-28T04:01:52.961Z,24.10
2017-11-28T04:04:21.249Z,23.90
2017-11-28T04:06:49.581Z,23.70
2017-11-28T04:09:17.900Z,23.70
2017-11-28T04:11:46.181Z,23.70
2017-11-28T04:14:14.617Z,23.90
2017-11-28T04:16:42.936Z,23.90
2017-11-28T04:19:11.258Z,24.00
2017-11-28T04:21:40.433Z,24.20
2017-11-28T04:24:08.749Z,24.20
2017-11-28T04:26:37.039Z,24.30
2017-11-28T04:29:05.481Z,24.30
2017-11-28T04:31:34.551Z,24.60
2017-11-28T04:34:02.877Z,24.50
2017-11-28T04:36:31.457Z,24.60
2017-11-28T04:39:00.533Z,24.90
2017-11-28T04:41:29.552Z,25.20
2017-11-28T04:43:58.026Z,25.20
2017-11-28T04:46:27.055Z,25.30
2017-11-28T04:48:55.350Z,25.30
2017-11-28T04:51:23.782Z,25.20
2017-11-28T04:53:52.850Z,25.20
2017-11-28T04:56:21.138Z,25.20
2017-11-28T04:58:50.173Z,25.30
2017-11-28T05:01:18.525Z,25.30
2017-11-28T05:03:47.440Z,25.40
2017-11-28T05:06:15.853Z,25.40
2017-11-28T05:08:44.164Z,25.50
2017-11-28T05:11:13.245Z,25.70
2017-11-28T05:13:41.654Z,25.70
2017-11-28T05:16:10.712Z,25.80
2017-11-28T05:18:39.077Z,25.80
2017-11-28T05:21:07.441Z,26.00
2017-11-28T05:23:35.709Z,26.00
2017-11-28T05:26:03.997Z,26.20
2017-11-28T05:28:32.429Z,26.30
2017-11-28T05:31:00.680Z,26.30
2017-11-28T05:33:29.004Z,26.40
2017-11-28T05:35:58.176Z,26.70
2017-11-28T05:38:26.691Z,26.70
2017-11-28T05:40:54.966Z,26.70
2017-11-28T05:43:24.149Z,27.10
2017-11-28T05:45:55.990Z,27.30
2017-11-28T05:48:24.273Z,27.30
2017-11-28T05:50:52.556Z,27.80
2017-11-28T05:53:26.357Z,27.90
2017-11-28T05:55:54.693Z,27.90
2017-11-28T05:58:22.976Z,27.90
2017-11-28T06:00:55.084Z,27.90
2017-11-28T06:03:23.385Z,27.80
2017-11-28T06:05:52.473Z,27.70
2017-11-28T06:08:25.188Z,27.70
2017-11-28T06:10:53.469Z,27.70
2017-11-28T06:13:21.784Z,27.70
2017-11-28T06:15:50.237Z,27.80
2017-11-28T06:18:18.813Z,28.00
2017-11-28T06:20:47.146Z,28.00
2017-11-28T06:23:15.577Z,28.00
2017-11-28T06:25:43.885Z,28.00
2017-11-28T06:28:12.317Z,28.10
2017-11-28T06:30:40.765Z,28.10
2017-11-28T06:33:09.049Z,28.20
2017-11-28T06:35:38.373Z,28.30
2017-11-28T06:38:07.520Z,28.40
2017-11-28T06:40:35.994Z,28.40
2017-11-28T06:43:04.292Z,28.60
2017-11-28T06:45:32.685Z,28.60
2017-11-28T06:48:01.020Z,28.60
2017-11-28T06:50:29.345Z,28.80
2017-11-28T06:52:57.889Z,28.90
2017-11-28T06:55:26.218Z,29.10
2017-11-28T06:57:55.253Z,29.30
2017-11-28T07:00:23.712Z,29.20
2017-11-28T07:02:52.772Z,29.40
2017-11-28T07:05:21.091Z,29.30
2017-11-28T07:07:50.292Z,29.60
2017-11-28T07:10:18.609Z,29.60
2017-11-28T07:12:46.912Z,29.60
2017-11-28T07:15:15.336Z,29.70
2017-11-28T07:17:43.624Z,29.70
2017-11-28T07:20:11.910Z,29.70
2017-11-28T07:22:40.352Z,29.70
2017-11-28T07:25:09.391Z,29.70
2017-11-28T07:27:37.684Z,29.70
2017-11-28T07:30:06.084Z,29.80
2017-11-28T07:32:34.405Z,29.70
2017-11-28T07:35:02.690Z,29.80
2017-11-28T07:37:31.092Z,29.90
2017-11-28T07:39:59.385Z,29.90
2017-11-28T07:42:27.831Z,29.80
2017-11-28T07:44:56.265Z,29.90
2017-11-28T07:47:24.544Z,30.00
2017-11-28T07:49:52.812Z,30.10
2017-11-28T07:52:21.217Z,30.10
2017-11-28T07:54:50.233Z,30.10
2017-11-28T07:57:18.504Z,30.10
2017-11-28T07:59:47.808Z,30.10
2017-11-28T08:02:16.828Z,30.20
2017-11-28T08:04:45.096Z,30.10
2017-11-28T08:07:13.500Z,30.20
2017-11-28T08:09:41.821Z,30.10
2017-11-28T08:12:10.857Z,30.30
2017-11-28T08:14:39.285Z,30.40
2017-11-28T08:17:07.560Z,30.50
2017-11-28T08:19:35.879Z,30.40
2017-11-28T08:22:04.401Z,30.20
2017-11-28T08:24:32.804Z,30.30
2017-11-28T08:27:01.222Z,30.30
2017-11-28T08:29:29.772Z,30.20
2017-11-28T08:31:58.157Z,30.20
2017-11-28T08:34:26.589Z,30.20
2017-11-28T08:36:55.105Z,30.20
2017-11-28T08:39:23.529Z,30.30
2017-11-28T08:41:52.705Z,30.30
2017-11-28T08:44:22.139Z,30.40
2017-11-28T08:46:50.588Z,30.40
2017-11-28T08:49:18.977Z,30.50
2017-11-28T08:51:48.348Z,30.50
2017-11-28T08:54:16.669Z,30.50
2017-11-28T08:56:45.725Z,30.40
2017-11-28T08:59:14.133Z,30.40
2017-11-28T09:01:43.172Z,30.30
2017-11-28T09:04:11.417Z,30.30
2017-11-28T09:06:40.553Z,30.40
2017-11-28T09:09:08.909Z,30.50
2017-11-28T09:11:37.205Z,30.50
2017-11-28T09:14:05.627Z,30.40
2017-11-28T09:16:33.950Z,30.40
2017-11-28T09:19:02.225Z,30.30
2017-11-28T09:21:30.658Z,30.40
2017-11-28T09:23:59.000Z,30.50
2017-11-28T09:26:27.240Z,30.50
2017-11-28T09:28:56.425Z,30.30
2017-11-28T09:31:24.656Z,30.30
2017-11-28T09:33:52.977Z,30.20
2017-11-28T09:36:21.413Z,30.10
2017-11-28T09:38:49.600Z,30.20
2017-11-28T09:41:17.832Z,30.20
2017-11-28T09:43:46.998Z,30.20
2017-11-28T09:46:15.493Z,30.20
2017-11-28T09:48:43.781Z,30.20
2017-11-28T09:51:12.939Z,30.00
2017-11-28T09:53:41.032Z,30.00
2017-11-28T09:56:09.177Z,30.20
2017-11-28T09:58:37.530Z,30.20
2017-11-28T10:01:05.850Z,30.00
2017-11-28T10:03:34.029Z,30.00
2017-11-28T10:06:02.424Z,30.00
2017-11-28T10:08:30.629Z,29.90
2017-11-28T10:10:59.603Z,30.00
2017-11-28T10:13:27.962Z,29.90
2017-11-28T10:15:56.127Z,29.90
2017-11-28T10:18:24.284Z,29.80
2017-11-28T10:20:52.617Z,29.80
2017-11-28T10:23:20.754Z,29.80
2017-11-28T10:25:48.921Z,29.70
2017-11-28T10:28:17.342Z,29.70
2017-11-28T10:30:45.565Z,29.80
2017-11-28T10:33:13.748Z,29.80
2017-11-28T10:35:41.953Z,29.80
2017-11-28T10:38:10.232Z,29.70
2017-11-28T10:40:38.367Z,29.60
2017-11-28T10:43:06.761Z,29.60
2017-11-28T10:45:34.933Z,29.60
2017-11-28T10:48:03.385Z,29.60
2017-11-28T10:50:31.714Z,29.60
2017-11-28T10:52:59.795Z,29.60
2017-11-28T10:55:28.001Z,29.50
2017-11-28T10:57:56.908Z,29.40
2017-11-28T11:00:25.358Z,29.40
2017-11-28T11:02:53.592Z,29.40
2017-11-28T11:05:21.832Z,29.40
2017-11-28T11:07:50.848Z,29.40
2017-11-28T11:10:18.963Z,29.40
2017-11-28T11:12:47.333Z,29.50
2017-11-28T11:15:15.559Z,29.40
2017-11-28T11:17:44.480Z,29.40
2017-11-28T11:20:12.856Z,29.40
2017-11-28T11:22:41.160Z,29.30
2017-11-28T11:25:09.289Z,29.30
2017-11-28T11:27:38.401Z,29.20
2017-11-28T11:30:06.594Z,29.20
2017-11-28T11:32:34.949Z,29.10
2017-11-28T11:35:03.196Z,29.10
2017-11-28T11:37:31.353Z,29.10
2017-11-28T11:39:59.465Z,29.00
2017-11-28T11:42:28.601Z,29.00
2017-11-28T11:44:56.797Z,29.00
2017-11-28T11:47:24.922Z,29.00
2017-11-28T11:49:53.217Z,29.00
2017-11-28T11:52:21.373Z,28.90
2017-11-28T11:54:50.200Z,28.80
2017-11-28T11:57:18.460Z,28.90
2017-11-28T11:59:46.680Z,28.80
2017-11-28T12:02:14.921Z,28.80
2017-11-28T12:04:43.226Z,28.70
2017-11-28T12:07:11.513Z,28.60
2017-11-28T12:09:39.610Z,28.60
2017-11-28T12:12:08.692Z,28.50
2017-11-28T12:14:36.812Z,28.50
2017-11-28T12:17:05.002Z,28.50
2017-11-28T12:19:33.313Z,28.50
2017-11-28T12:22:01.512Z,28.40
2017-11-28T12:24:30.423Z,28.40
2017-11-28T12:26:58.912Z,28.40
2017-11-28T12:29:27.149Z,28.40
2017-11-28T12:31:55.228Z,28.40
2017-11-28T12:34:24.465Z,28.30
2017-11-28T12:36:52.560Z,28.30
2017-11-28T12:39:20.804Z,28.30
2017-11-28T12:41:49.117Z,28.20
2017-11-28T12:44:17.292Z,28.20
2017-11-28T12:46:45.393Z,28.10
2017-11-28T12:49:13.625Z,28.10
2017-11-28T12:51:41.744Z,28.00
2017-11-28T12:54:09.949Z,27.90
2017-11-28T12:56:39.032Z,27.90
2017-11-28T12:59:08.016Z,27.80
2017-11-28T13:01:36.205Z,27.80
2017-11-28T13:04:05.342Z,27.70
2017-11-28T13:06:33.594Z,27.70
2017-11-28T13:09:02.561Z,27.70
2017-11-28T13:11:30.915Z,27.70
2017-11-28T13:13:59.089Z,27.70
2017-11-28T13:16:27.344Z,27.70
2017-11-28T13:18:55.740Z,27.70
2017-11-28T13:21:23.884Z,27.70
2017-11-28T13:23:52.089Z,27.70
2017-11-28T13:26:20.521Z,27.70
2017-11-28T13:28:48.738Z,27.70
2017-11-28T13:31:16.997Z,27.70
2017-11-28T13:33:45.433Z,27.60
2017-11-28T13:36:13.933Z,27.50
2017-11-28T13:38:42.852Z,27.40
2017-11-28T13:41:11.349Z,27.40
2017-11-28T13:43:39.438Z,27.40
2017-11-28T13:46:10.493Z,27.40
2017-11-28T13:48:38.917Z,27.40
2017-11-28T13:51:07.889Z,27.40
2017-11-28T13:53:36.117Z,27.40
2017-11-28T13:56:04.452Z,27.30
2017-11-28T13:58:33.287Z,27.30
2017-11-28T14:01:01.657Z,27.20
2017-11-28T14:03:30.264Z,27.30
2017-11-28T14:05:58.608Z,27.30
2017-11-28T14:08:27.540Z,27.20
2017-11-28T14:10:55.853Z,27.30
2017-11-28T14:13:25.244Z,27.30
2017-11-28T14:15:53.441Z,27.20
2017-11-28T14:18:22.653Z,27.20
2017-11-28T14:20:52.850Z,27.10
2017-11-28T14:23:36.978Z,27.20
2017-11-28T14:26:19.980Z,27.10
2017-11-28T14:28:59.033Z,27.10
2017-11-28T14:31:47.921Z,27.00
2017-11-28T14:34:17.224Z,27.10
2017-11-28T14:36:49.557Z,27.00
2017-11-28T14:39:19.762Z,27.00
2017-11-28T14:41:48.326Z,27.00
2017-11-28T14:44:18.403Z,27.00
2017-11-28T14:46:46.990Z,27.00
2017-11-28T14:49:15.426Z,27.00
2017-11-28T14:51:55.581Z,26.90
2017-11-28T14:54:36.599Z,26.90
2017-11-28T14:57:09.053Z,26.90
2017-11-28T14:59:43.167Z,26.90
2017-11-28T15:02:27.184Z,26.90
2017-11-28T15:05:01.306Z,26.90
2017-11-28T15:07:35.316Z,27.00
2017-11-28T15:10:06.567Z,26.90
2017-11-28T15:26:18.593Z,26.80
2017-11-28T15:28:58.557Z,26.80
2017-11-28T15:31:27.130Z,26.70
2017-11-28T15:33:55.596Z,26.80
2017-11-28T15:36:23.883Z,26.80
2017-11-28T15:38:52.481Z,26.70
2017-11-28T15:41:20.817Z,26.80
2017-11-28T15:43:49.105Z,26.70
2017-11-28T15:46:17.576Z,26.70
2017-11-28T15:48:46.537Z,26.70
2017-11-28T15:51:14.753Z,26.70
2017-11-28T15:53:43.105Z,26.70
2017-11-28T15:56:12.060Z,26.70
2017-11-28T15:58:40.281Z,26.70
2017-11-28T16:01:09.485Z,26.70
2017-11-28T16:03:38.456Z,26.70
2017-11-28T16:06:06.662Z,26.60
2017-11-28T16:08:35.816Z,26.70
2017-11-28T16:11:04.049Z,26.70
2017-11-28T16:13:32.163Z,26.70
2017-11-28T16:16:00.449Z,26.60
2017-11-28T16:18:28.537Z,26.60
2017-11-28T16:20:56.677Z,26.60
2017-11-28T16:23:25.081Z,26.60
2017-11-28T16:25:53.152Z,26.60
2017-11-28T16:28:21.356Z,26.60
2017-11-28T16:30:50.393Z,26.50
2017-11-28T16:33:18.609Z,26.50
2017-11-28T16:35:46.916Z,26.50
2017-11-28T16:38:15.973Z,26.50
2017-11-28T16:40:44.356Z,26.60
2017-11-28T16:43:12.718Z,26.50
2017-11-28T16:45:40.985Z,26.50
2017-11-28T16:48:09.114Z,26.50
2017-11-28T16:50:38.077Z,26.40
2017-11-28T16:53:06.299Z,26.50
2017-11-28T16:55:34.580Z,26.40
2017-11-28T16:58:02.855Z,26.40
2017-11-28T17:00:31.270Z,26.40
2017-11-28T17:02:59.446Z,26.50
2017-11-28T17:05:27.701Z,26.40
2017-11-28T17:07:56.053Z,26.40
2017-11-28T17:10:24.920Z,26.40
2017-11-28T17:12:53.244Z,26.40
2017-11-28T17:15:21.793Z,26.40
2017-11-28T17:17:50.054Z,26.30
2017-11-28T17:20:18.336Z,26.40
2017-11-28T17:22:46.748Z,26.40
2017-11-28T17:25:15.821Z,26.30
2017-11-28T17:27:43.980Z,26.40
2017-11-28T17:30:12.228Z,26.40
2017-11-28T17:32:40.676Z,26.50
2017-11-28T17:41:23.292Z,26.40
2017-11-28T17:43:51.602Z,26.40
2017-11-28T17:46:20.492Z,26.40
2017-11-28T17:48:49.561Z,26.40
2017-11-28T17:51:17.778Z,26.40
2017-11-28T17:53:46.620Z,26.50
2017-11-28T17:56:14.896Z,26.50
2017-11-28T17:58:43.184Z,26.40
2017-11-28T18:01:11.500Z,26.30
2017-11-28T18:03:40.573Z,26.40
2017-11-28T18:06:09.028Z,26.40
2017-11-28T18:08:37.264Z,26.40
2017-11-28T18:11:05.535Z,26.50
2017-11-28T18:13:34.404Z,26.40
2017-11-28T18:16:02.593Z,26.40
2017-11-28T18:18:31.585Z,26.40
2017-11-28T18:21:00.505Z,26.40
2017-11-28T18:23:28.696Z,26.40
2017-11-28T18:25:57.017Z,26.40
2017-11-28T18:28:25.148Z,26.40
2017-11-28T18:30:53.430Z,26.30
2017-11-28T18:33:21.775Z,26.30
2017-11-28T18:35:50.715Z,26.30
2017-11-28T18:38:18.820Z,26.30
2017-11-28T18:40:47.384Z,26.30
2017-11-28T18:43:15.593Z,26.30
2017-11-28T18:45:44.488Z,26.30
2017-11-28T18:48:13.716Z,26.30
2017-11-28T18:50:41.922Z,26.20
2017-11-28T18:53:10.072Z,26.20
2017-11-28T18:55:38.340Z,26.30
2017-11-28T18:58:06.585Z,26.30
2017-11-28T19:00:34.941Z,26.30
2017-11-28T19:03:03.209Z,26.20
2017-11-28T19:05:31.376Z,26.20
2017-11-28T19:07:59.624Z,26.20
2017-11-28T19:10:27.844Z,26.30
2017-11-28T19:12:56.165Z,26.30
2017-11-28T19:15:25.072Z,26.30
2017-11-28T19:17:53.316Z,26.30
2017-11-28T19:20:21.572Z,26.30
2017-11-28T19:22:49.656Z,26.20
2017-11-28T19:25:18.010Z,26.20
2017-11-28T19:27:46.296Z,26.30
2017-11-28T19:30:14.421Z,26.20
2017-11-28T19:32:43.449Z,26.20
2017-11-28T19:35:11.556Z,26.20
2017-11-28T19:37:39.825Z,26.20
2017-11-28T19:40:08.217Z,26.20
2017-11-28T19:42:36.377Z,26.10
2017-11-28T19:45:04.873Z,26.10
2017-11-28T19:47:33.180Z,26.20
2017-11-28T19:50:02.241Z,26.20
2017-11-28T19:52:30.532Z,26.20
2017-11-28T19:54:58.904Z,26.20
2017-11-28T19:57:27.029Z,26.10
2017-11-28T19:59:55.200Z,26.10
2017-11-28T20:02:23.387Z,26.20
2017-11-28T20:04:51.472Z,26.20
2017-11-28T20:07:19.656Z,26.20
2017-11-28T20:09:47.880Z,26.20
2017-11-28T20:12:16.780Z,26.20
2017-11-28T20:14:45.596Z,26.20
2017-11-28T20:17:14.009Z,26.20
2017-11-28T20:19:42.401Z,26.10
2017-11-28T20:22:10.529Z,26.20
2017-11-28T20:24:38.941Z,26.10
2017-11-28T20:27:07.084Z,26.10
2017-11-28T20:29:35.317Z,26.10
2017-11-28T20:32:03.857Z,26.10
2017-11-28T20:34:32.033Z,26.10
2017-11-28T20:37:00.125Z,26.10
2017-11-28T20:39:28.542Z,26.20
2017-11-28T20:41:57.472Z,26.10
2017-11-28T20:44:25.749Z,26.10
2017-11-28T20:46:54.385Z,26.10
2017-11-28T20:49:28.378Z,26.00
2017-11-28T20:51:56.629Z,26.10
2017-11-28T20:54:25.036Z,26.00
2017-11-28T20:56:53.304Z,26.10
2017-11-28T20:59:21.741Z,26.10
2017-11-28T21:01:50.005Z,26.00
2017-11-28T21:04:18.988Z,26.00
2017-11-28T21:06:47.308Z,26.00
2017-11-28T21:09:15.497Z,26.10
2017-11-28T21:11:43.676Z,26.00
2017-11-28T21:14:12.109Z,26.00
2017-11-28T21:16:41.073Z,26.00
2017-11-28T21:19:09.296Z,26.00
2017-11-28T21:21:37.585Z,26.00
2017-11-28T21:24:05.713Z,26.00
2017-11-28T21:26:33.947Z,26.00
2017-11-28T21:29:02.236Z,26.00
2017-11-28T21:31:30.520Z,25.90
2017-11-28T21:33:58.675Z,25.90
2017-11-28T21:36:26.917Z,25.90
2017-11-28T21:38:55.880Z,25.90
2017-11-28T21:41:24.056Z,25.90
2017-11-28T21:43:52.272Z,25.90
2017-11-28T21:46:21.145Z,25.90
2017-11-28T21:48:50.281Z,25.90
2017-11-28T21:51:18.616Z,25.90
2017-11-28T21:53:46.884Z,25.80
2017-11-28T21:56:15.161Z,25.80
2017-11-28T21:58:43.544Z,25.90
2017-11-28T22:01:11.620Z,25.80
2017-11-28T22:03:39.813Z,25.80
2017-11-28T22:06:08.759Z,25.80
2017-11-28T22:08:36.878Z,25.80
2017-11-28T22:11:05.751Z,25.80
2017-11-28T22:13:34.042Z,25.80
2017-11-28T22:16:03.029Z,25.80
2017-11-28T22:18:31.200Z,25.80
2017-11-28T22:20:59.463Z,25.80
2017-11-28T22:23:27.789Z,25.70
2017-11-28T22:25:55.944Z,25.60
2017-11-28T22:28:25.036Z,25.60
2017-11-28T22:30:53.857Z,25.70
2017-11-28T22:33:22.064Z,25.60
2017-11-28T22:35:50.236Z,25.70
2017-11-28T22:38:18.429Z,25.60
2017-11-28T22:40:46.608Z,25.60
2017-11-28T22:43:14.989Z,25.60
2017-11-28T22:45:43.253Z,25.60
2017-11-28T22:48:11.421Z,25.50
2017-11-28T22:50:39.784Z,25.50
2017-11-28T22:53:07.899Z,25.50
2017-11-28T22:55:36.053Z,25.50
2017-11-28T22:58:04.479Z,25.50
2017-11-28T23:00:33.323Z,25.40
2017-11-28T23:03:01.451Z,25.40
2017-11-28T23:05:30.625Z,25.40
2017-11-28T23:07:58.712Z,25.40
2017-11-28T23:10:27.581Z,25.40
2017-11-28T23:12:55.869Z,25.40
2017-11-28T23:15:24.093Z,25.40
2017-11-28T23:17:52.401Z,25.40
2017-11-28T23:20:20.845Z,25.40
2017-11-28T23:22:49.123Z,25.40
2017-11-28T23:25:17.184Z,25.50
2017-11-28T23:27:46.253Z,25.40
2017-11-28T23:30:14.441Z,25.40
2017-11-28T23:32:43.417Z,25.40
2017-11-28T23:35:11.748Z,25.30
2017-11-28T23:37:39.953Z,25.40
2017-11-28T23:40:08.237Z,25.40
2017-11-28T23:42:36.608Z,25.40
2017-11-28T23:45:04.861Z,25.40
2017-11-28T23:47:32.928Z,25.40
2017-11-28T23:50:01.249Z,25.40
2017-11-28T23:52:29.740Z,25.30
2017-11-28T23:54:57.936Z,25.30
2017-11-28T23:57:27.532Z,25.30
2017-11-28T23:59:55.736Z,25.30
